sensor_id;sensor_type;location;lat;lon;timestamp;temperature;humidity
10386;DHT22;34307;51.332;12.334;2023-03-01T05:39:25;-4.00;3.30
10386;DHT22;34307;51.332;12.334;2023-03-01T05:41:54;-4.00;4.10
10386;DHT22;34307;51.332;12.334;2023-03-01T05:44:22;-3.90;6.30
10386;DHT22;34307;51.332;12.334;2023-03-01T05:46:50;-3.90;6.60
10386;DHT22;34307;51.332;12.334;2023-03-01T05:49:19;-3.90;3.10
10386;DHT22;34307;51.332;12.334;2023-03-01T05:51:48;-3.90;7.30
10386;DHT22;34307;51.332;12.334;2023-03-01T05:54:17;-3.90;10.90
10386;DHT22;34307;51.332;12.334;2023-03-01T05:56:46;-3.90;8.80
10386;DHT22;34307;51.332;12.334;2023-03-01T05:59:14;-3.90;9.90
10386;DHT22;34307;51.332;12.334;2023-03-01T06:01:42;-4.00;8.70
10386;DHT22;34307;51.332;12.334;2023-03-01T12:38:37;6.40;46.50
10386;DHT22;34307;51.332;12.334;2023-03-01T12:41:34;6.80;43.70
10386;DHT22;34307;51.332;12.334;2023-03-01T12:44:22;7.50;43.00
10386;DHT22;34307;51.332;12.334;2023-03-01T12:47:00;7.80;39.70
10386;DHT22;34307;51.332;12.334;2023-03-01T12:49:36;7.90;36.50
10386;DHT22;34307;51.332;12.334;2023-03-01T12:52:16;8.20;37.50
10386;DHT22;34307;51.332;12.334;2023-03-01T12:54:49;8.60;33.70
10386;DHT22;34307;51.332;12.334;2023-03-01T12:57:25;8.30;31.10
10386;DHT22;34307;51.332;12.334;2023-03-01T13:00:09;8.00;32.10
10386;DHT22;34307;51.332;12.334;2023-03-01T13:02:43;8.00;32.50
10386;DHT22;34307;51.332;12.334;2023-03-01T13:05:24;8.10;31.70
10386;DHT22;34307;51.332;12.334;2023-03-01T13:08:00;8.50;30.90
10386;DHT22;34307;51.332;12.334;2023-03-01T13:10:33;8.70;29.70
10386;DHT22;34307;51.332;12.334;2023-03-01T13:13:12;8.50;27.60
10386;DHT22;34307;51.332;12.334;2023-03-01T13:15:41;8.20;28.30
10386;DHT22;34307;51.332;12.334;2023-03-01T13:18:29;7.60;29.90
10386;DHT22;34307;51.332;12.334;2023-03-01T13:21:00;7.60;29.90
10386;DHT22;34307;51.332;12.334;2023-03-01T13:23:31;7.70;30.20
10386;DHT22;34307;51.332;12.334;2023-03-01T13:26:13;7.90;29.30
10386;DHT22;34307;51.332;12.334;2023-03-01T13:28:56;8.20;28.00
10386;DHT22;34307;51.332;12.334;2023-03-01T13:34:54;8.70;25.20
10386;DHT22;34307;51.332;12.334;2023-03-01T13:37:28;8.90;23.10
10386;DHT22;34307;51.332;12.334;2023-03-01T13:39:58;9.00;23.20
10386;DHT22;34307;51.332;12.334;2023-03-01T13:42:39;9.40;21.80
10386;DHT22;34307;51.332;12.334;2023-03-01T13:45:19;9.70;19.40
10386;DHT22;34307;51.332;12.334;2023-03-01T13:47:52;9.70;20.30
10386;DHT22;34307;51.332;12.334;2023-03-01T13:50:23;10.00;19.70
10386;DHT22;34307;51.332;12.334;2023-03-01T13:52:55;10.50;14.90
10386;DHT22;34307;51.332;12.334;2023-03-01T13:55:27;10.70;14.90
10386;DHT22;34307;51.332;12.334;2023-03-01T13:58:00;10.70;11.30
10386;DHT22;34307;51.332;12.334;2023-03-01T14:00:34;11.10;12.00
10386;DHT22;34307;51.332;12.334;2023-03-01T14:03:05;11.10;7.90
10386;DHT22;34307;51.332;12.334;2023-03-01T14:05:34;10.90;4.30
10386;DHT22;34307;51.332;12.334;2023-03-01T14:08:02;11.50;4.50
10386;DHT22;34307;51.332;12.334;2023-03-01T14:10:36;11.60;1.00
10386;DHT22;34307;51.332;12.334;2023-03-01T14:13:24;11.20;1.00
10386;DHT22;34307;51.332;12.334;2023-03-01T14:16:06;11.00;1.00
10386;DHT22;34307;51.332;12.334;2023-03-01T14:18:40;11.50;1.00
10386;DHT22;34307;51.332;12.334;2023-03-01T14:21:13;11.60;1.00
10386;DHT22;34307;51.332;12.334;2023-03-01T14:23:42;12.00;1.00
10386;DHT22;34307;51.332;12.334;2023-03-01T14:26:09;12.00;1.00
10386;DHT22;34307;51.332;12.334;2023-03-01T14:28:42;12.50;1.00
10386;DHT22;34307;51.332;12.334;2023-03-01T14:31:35;12.20;1.00
10386;DHT22;34307;51.332;12.334;2023-03-01T14:34:20;12.50;1.00
10386;DHT22;34307;51.332;12.334;2023-03-01T14:36:48;12.60;1.00
10386;DHT22;34307;51.332;12.334;2023-03-01T14:39:17;12.40;1.00
10386;DHT22;34307;51.332;12.334;2023-03-01T14:41:45;12.60;1.00
10386;DHT22;34307;51.332;12.334;2023-03-01T14:44:19;12.20;1.00
10386;DHT22;34307;51.332;12.334;2023-03-01T14:46:52;12.30;1.00
10386;DHT22;34307;51.332;12.334;2023-03-01T14:49:23;12.20;1.00
10386;DHT22;34307;51.332;12.334;2023-03-01T14:51:54;11.90;1.00
10386;DHT22;34307;51.332;12.334;2023-03-01T14:54:25;11.70;1.00
10386;DHT22;34307;51.332;12.334;2023-03-01T14:56:58;11.70;1.00
10386;DHT22;34307;51.332;12.334;2023-03-01T14:59:28;11.60;1.00
10386;DHT22;34307;51.332;12.334;2023-03-01T15:01:57;11.60;1.00
10386;DHT22;34307;51.332;12.334;2023-03-01T15:04:27;12.20;1.00
10386;DHT22;34307;51.332;12.334;2023-03-01T15:06:57;12.00;1.00
10386;DHT22;34307;51.332;12.334;2023-03-01T15:09:32;11.80;1.00
10386;DHT22;34307;51.332;12.334;2023-03-01T15:12:35;11.80;1.00
10386;DHT22;34307;51.332;12.334;2023-03-01T15:15:34;11.60;1.00
10386;DHT22;34307;51.332;12.334;2023-03-01T15:18:05;11.60;1.00
10386;DHT22;34307;51.332;12.334;2023-03-01T15:20:34;11.60;1.00
10386;DHT22;34307;51.332;12.334;2023-03-01T15:23:05;11.80;1.00
10386;DHT22;34307;51.332;12.334;2023-03-01T15:25:33;12.20;1.00
10386;DHT22;34307;51.332;12.334;2023-03-01T15:28:02;12.20;1.00
10386;DHT22;34307;51.332;12.334;2023-03-01T15:30:34;12.10;1.00
10386;DHT22;34307;51.332;12.334;2023-03-01T15:33:18;11.40;1.00
10386;DHT22;34307;51.332;12.334;2023-03-01T15:35:48;11.50;1.00
10386;DHT22;34307;51.332;12.334;2023-03-01T15:38:35;11.10;1.00
10386;DHT22;34307;51.332;12.334;2023-03-01T15:41:21;11.00;1.00
10386;DHT22;34307;51.332;12.334;2023-03-01T15:43:50;11.10;1.00
10386;DHT22;34307;51.332;12.334;2023-03-01T15:46:28;10.70;1.00
10386;DHT22;34307;51.332;12.334;2023-03-01T15:48:59;11.00;1.00
10386;DHT22;34307;51.332;12.334;2023-03-01T15:51:31;11.00;1.00
10386;DHT22;34307;51.332;12.334;2023-03-01T15:54:05;11.10;1.00
10386;DHT22;34307;51.332;12.334;2023-03-01T15:56:33;10.70;1.00
10386;DHT22;34307;51.332;12.334;2023-03-01T15:59:02;10.10;1.00
10386;DHT22;34307;51.332;12.334;2023-03-01T16:01:32;10.10;1.00
10386;DHT22;34307;51.332;12.334;2023-03-01T16:04:01;10.30;1.00
10386;DHT22;34307;51.332;12.334;2023-03-01T16:06:29;10.40;1.00
10386;DHT22;34307;51.332;12.334;2023-03-01T16:08:57;9.70;1.00
10386;DHT22;34307;51.332;12.334;2023-03-01T16:11:25;8.80;1.00
10386;DHT22;34307;51.332;12.334;2023-03-01T16:13:53;8.20;1.00
10386;DHT22;34307;51.332;12.334;2023-03-01T16:16:21;8.40;1.00
10386;DHT22;34307;51.332;12.334;2023-03-01T16:18:50;8.30;1.00
10386;DHT22;34307;51.332;12.334;2023-03-01T16:21:22;8.10;1.00
10386;DHT22;34307;51.332;12.334;2023-03-01T16:23:51;7.70;1.00
10386;DHT22;34307;51.332;12.334;2023-03-01T16:26:19;7.10;1.00
10386;DHT22;34307;51.332;12.334;2023-03-01T16:28:47;6.70;99.90
10386;DHT22;34307;51.332;12.334;2023-03-01T16:31:18;6.30;1.00
10386;DHT22;34307;51.332;12.334;2023-03-01T16:33:47;6.30;1.00
10386;DHT22;34307;51.332;12.334;2023-03-01T16:36:19;6.40;1.00
10386;DHT22;34307;51.332;12.334;2023-03-01T16:38:50;6.30;1.00
10386;DHT22;34307;51.332;12.334;2023-03-01T16:41:19;6.00;1.00
10386;DHT22;34307;51.332;12.334;2023-03-01T16:43:48;5.60;1.00
10386;DHT22;34307;51.332;12.334;2023-03-01T16:46:19;5.30;1.00
10386;DHT22;34307;51.332;12.334;2023-03-01T16:48:48;5.00;1.00
10386;DHT22;34307;51.332;12.334;2023-03-01T16:51:18;4.70;1.00
10386;DHT22;34307;51.332;12.334;2023-03-01T16:53:47;4.60;1.00
10386;DHT22;34307;51.332;12.334;2023-03-01T16:56:15;4.40;1.00
10386;DHT22;34307;51.332;12.334;2023-03-01T16:58:44;4.30;1.00
10386;DHT22;34307;51.332;12.334;2023-03-01T17:01:13;4.20;1.00
10386;DHT22;34307;51.332;12.334;2023-03-01T17:03:42;4.10;1.00
10386;DHT22;34307;51.332;12.334;2023-03-01T17:06:13;3.90;1.00
10386;DHT22;34307;51.332;12.334;2023-03-01T17:08:43;3.80;1.00
10386;DHT22;34307;51.332;12.334;2023-03-01T17:11:13;3.70;1.00
10386;DHT22;34307;51.332;12.334;2023-03-01T17:13:42;3.70;1.00
10386;DHT22;34307;51.332;12.334;2023-03-01T17:16:11;3.60;1.00
10386;DHT22;34307;51.332;12.334;2023-03-01T17:18:40;3.50;1.00
10386;DHT22;34307;51.332;12.334;2023-03-01T17:21:09;3.40;1.00
10386;DHT22;34307;51.332;12.334;2023-03-01T17:23:38;3.30;1.00
10386;DHT22;34307;51.332;12.334;2023-03-01T17:26:08;3.20;1.00
10386;DHT22;34307;51.332;12.334;2023-03-01T17:28:36;3.20;1.00
10386;DHT22;34307;51.332;12.334;2023-03-01T17:31:05;3.10;1.00
10386;DHT22;34307;51.332;12.334;2023-03-01T17:33:33;3.00;1.00
10386;DHT22;34307;51.332;12.334;2023-03-01T17:36:01;2.90;1.20
10386;DHT22;34307;51.332;12.334;2023-03-01T17:38:29;2.90;2.50
10386;DHT22;34307;51.332;12.334;2023-03-01T17:40:58;2.90;3.70
10386;DHT22;34307;51.332;12.334;2023-03-01T17:43:28;2.90;5.90
10386;DHT22;34307;51.332;12.334;2023-03-01T17:45:56;2.90;6.80
10386;DHT22;34307;51.332;12.334;2023-03-01T17:48:24;2.90;8.70
10386;DHT22;34307;51.332;12.334;2023-03-01T17:50:52;2.80;11.00
10386;DHT22;34307;51.332;12.334;2023-03-01T17:53:21;2.70;12.00
10386;DHT22;34307;51.332;12.334;2023-03-01T17:55:57;2.70;12.60
10386;DHT22;34307;51.332;12.334;2023-03-01T17:58:25;2.60;14.30
10386;DHT22;34307;51.332;12.334;2023-03-01T18:00:54;2.60;16.50
10386;DHT22;34307;51.332;12.334;2023-03-01T18:03:22;2.60;16.40
10386;DHT22;34307;51.332;12.334;2023-03-01T18:05:50;2.50;17.30
10386;DHT22;34307;51.332;12.334;2023-03-01T18:08:18;2.40;18.00
10386;DHT22;34307;51.332;12.334;2023-03-01T18:10:45;2.30;19.60
10386;DHT22;34307;51.332;12.334;2023-03-01T18:13:13;2.20;21.30
10386;DHT22;34307;51.332;12.334;2023-03-01T18:15:41;2.10;22.00
10386;DHT22;34307;51.332;12.334;2023-03-01T18:18:10;2.20;22.60
10386;DHT22;34307;51.332;12.334;2023-03-01T18:20:38;2.10;22.50
10386;DHT22;34307;51.332;12.334;2023-03-01T18:23:06;2.10;22.30
10386;DHT22;34307;51.332;12.334;2023-03-01T18:25:33;1.90;23.20
10386;DHT22;34307;51.332;12.334;2023-03-01T18:28:01;1.90;25.00
10386;DHT22;34307;51.332;12.334;2023-03-01T18:30:30;1.90;25.60
10386;DHT22;34307;51.332;12.334;2023-03-01T18:32:59;2.00;25.80
10386;DHT22;34307;51.332;12.334;2023-03-01T18:35:28;2.10;28.10
10386;DHT22;34307;51.332;12.334;2023-03-01T18:37:57;2.10;26.80
10386;DHT22;34307;51.332;12.334;2023-03-01T18:40:25;2.00;28.00
10386;DHT22;34307;51.332;12.334;2023-03-01T18:42:52;1.90;27.40
10386;DHT22;34307;51.332;12.334;2023-03-01T18:45:20;1.90;27.70
10386;DHT22;34307;51.332;12.334;2023-03-01T18:47:48;1.80;28.70
10386;DHT22;34307;51.332;12.334;2023-03-01T18:50:16;1.80;28.80
10386;DHT22;34307;51.332;12.334;2023-03-01T18:52:45;1.70;29.40
10386;DHT22;34307;51.332;12.334;2023-03-01T18:55:13;1.70;30.50
10386;DHT22;34307;51.332;12.334;2023-03-01T18:57:41;1.70;30.70
10386;DHT22;34307;51.332;12.334;2023-03-01T19:00:10;1.70;30.90
10386;DHT22;34307;51.332;12.334;2023-03-01T19:02:38;1.60;30.90
10386;DHT22;34307;51.332;12.334;2023-03-01T19:05:07;1.70;32.70
10386;DHT22;34307;51.332;12.334;2023-03-01T19:07:35;1.70;32.90
10386;DHT22;34307;51.332;12.334;2023-03-01T19:10:05;1.60;33.00
10386;DHT22;34307;51.332;12.334;2023-03-01T19:12:34;1.40;32.80
10386;DHT22;34307;51.332;12.334;2023-03-01T19:15:02;1.30;33.40
10386;DHT22;34307;51.332;12.334;2023-03-01T19:17:30;1.10;34.70
10386;DHT22;34307;51.332;12.334;2023-03-01T19:19:59;1.10;36.50
10386;DHT22;34307;51.332;12.334;2023-03-01T19:22:27;1.20;36.90
10386;DHT22;34307;51.332;12.334;2023-03-01T19:24:54;1.10;37.20
10386;DHT22;34307;51.332;12.334;2023-03-01T19:27:24;1.20;38.60
10386;DHT22;34307;51.332;12.334;2023-03-01T19:29:52;1.10;38.90
10386;DHT22;34307;51.332;12.334;2023-03-01T19:32:19;1.10;38.10
10386;DHT22;34307;51.332;12.334;2023-03-01T19:34:47;1.10;38.70
10386;DHT22;34307;51.332;12.334;2023-03-01T19:37:15;1.10;37.70
10386;DHT22;34307;51.332;12.334;2023-03-01T19:39:43;1.20;37.90
10386;DHT22;34307;51.332;12.334;2023-03-01T19:42:11;1.20;36.90
10386;DHT22;34307;51.332;12.334;2023-03-01T19:44:40;1.20;37.30
10386;DHT22;34307;51.332;12.334;2023-03-01T19:47:07;1.30;37.50
10386;DHT22;34307;51.332;12.334;2023-03-01T19:49:35;1.20;37.00
10386;DHT22;34307;51.332;12.334;2023-03-01T19:52:03;1.20;37.40
10386;DHT22;34307;51.332;12.334;2023-03-01T19:54:31;1.20;36.90
10386;DHT22;34307;51.332;12.334;2023-03-01T19:56:59;1.30;37.30
10386;DHT22;34307;51.332;12.334;2023-03-01T19:59:27;1.20;37.40
10386;DHT22;34307;51.332;12.334;2023-03-01T20:01:56;1.20;36.80
10386;DHT22;34307;51.332;12.334;2023-03-01T20:04:24;1.20;37.30
10386;DHT22;34307;51.332;12.334;2023-03-01T20:06:52;1.20;37.70
10386;DHT22;34307;51.332;12.334;2023-03-01T20:09:19;1.20;37.10
10386;DHT22;34307;51.332;12.334;2023-03-01T20:11:48;1.10;36.70
10386;DHT22;34307;51.332;12.334;2023-03-01T20:14:17;1.10;37.30
10386;DHT22;34307;51.332;12.334;2023-03-01T20:16:48;1.10;37.30
10386;DHT22;34307;51.332;12.334;2023-03-01T20:19:17;1.10;37.70
10386;DHT22;34307;51.332;12.334;2023-03-01T20:21:46;1.10;38.10
10386;DHT22;34307;51.332;12.334;2023-03-01T20:24:14;1.10;38.20
10386;DHT22;34307;51.332;12.334;2023-03-01T20:26:42;1.00;37.50
10386;DHT22;34307;51.332;12.334;2023-03-01T20:29:09;0.90;37.40
10386;DHT22;34307;51.332;12.334;2023-03-01T20:31:38;0.90;38.30
10386;DHT22;34307;51.332;12.334;2023-03-01T20:34:08;0.80;38.40
10386;DHT22;34307;51.332;12.334;2023-03-01T20:36:37;0.80;38.90
10386;DHT22;34307;51.332;12.334;2023-03-01T20:39:06;0.90;39.30
10386;DHT22;34307;51.332;12.334;2023-03-01T20:41:35;0.80;39.80
10386;DHT22;34307;51.332;12.334;2023-03-01T20:44:03;0.80;40.00
10386;DHT22;34307;51.332;12.334;2023-03-01T20:46:33;0.90;39.40
10386;DHT22;34307;51.332;12.334;2023-03-01T20:49:04;0.90;40.20
10386;DHT22;34307;51.332;12.334;2023-03-01T20:51:32;1.00;42.10
10386;DHT22;34307;51.332;12.334;2023-03-01T20:54:02;1.00;42.30
10386;DHT22;34307;51.332;12.334;2023-03-01T20:56:30;0.90;42.00
10386;DHT22;34307;51.332;12.334;2023-03-01T20:58:59;0.90;41.60
10386;DHT22;34307;51.332;12.334;2023-03-01T21:01:27;0.90;41.30
10386;DHT22;34307;51.332;12.334;2023-03-01T21:03:54;0.80;42.20
10386;DHT22;34307;51.332;12.334;2023-03-01T21:06:22;0.80;42.60
10386;DHT22;34307;51.332;12.334;2023-03-01T21:08:50;0.70;42.30
10386;DHT22;34307;51.332;12.334;2023-03-01T21:11:19;0.60;42.30
10386;DHT22;34307;51.332;12.334;2023-03-01T21:13:50;0.60;42.00
10386;DHT22;34307;51.332;12.334;2023-03-01T21:16:18;0.50;42.40
10386;DHT22;34307;51.332;12.334;2023-03-01T21:18:47;0.60;42.40
10386;DHT22;34307;51.332;12.334;2023-03-01T21:21:17;0.70;43.00
10386;DHT22;34307;51.332;12.334;2023-03-01T21:23:45;0.70;43.70
10386;DHT22;34307;51.332;12.334;2023-03-01T21:26:14;0.70;43.20
10386;DHT22;34307;51.332;12.334;2023-03-01T21:28:44;0.80;44.40
10386;DHT22;34307;51.332;12.334;2023-03-01T21:31:13;1.00;48.20
10386;DHT22;34307;51.332;12.334;2023-03-01T21:33:44;1.00;49.90
10386;DHT22;34307;51.332;12.334;2023-03-01T21:36:12;1.00;46.80
10386;DHT22;34307;51.332;12.334;2023-03-01T21:38:42;0.90;46.10
10386;DHT22;34307;51.332;12.334;2023-03-01T21:41:12;0.80;46.50
10386;DHT22;34307;51.332;12.334;2023-03-01T21:43:42;0.80;46.70
10386;DHT22;34307;51.332;12.334;2023-03-01T21:46:13;0.70;45.60
10386;DHT22;34307;51.332;12.334;2023-03-01T21:48:42;0.70;46.40
10386;DHT22;34307;51.332;12.334;2023-03-01T21:51:12;0.60;46.10
10386;DHT22;34307;51.332;12.334;2023-03-01T21:53:41;0.50;47.10
10386;DHT22;34307;51.332;12.334;2023-03-01T21:56:10;0.50;47.30
10386;DHT22;34307;51.332;12.334;2023-03-01T21:58:41;0.50;47.90
10386;DHT22;34307;51.332;12.334;2023-03-01T22:01:10;0.50;47.20
10386;DHT22;34307;51.332;12.334;2023-03-01T22:03:40;0.50;47.40
10386;DHT22;34307;51.332;12.334;2023-03-01T22:06:13;0.40;48.10
10386;DHT22;34307;51.332;12.334;2023-03-01T22:08:45;0.30;49.10
10386;DHT22;34307;51.332;12.334;2023-03-01T22:11:14;0.30;48.10
10386;DHT22;34307;51.332;12.334;2023-03-01T22:13:43;0.30;48.20
10386;DHT22;34307;51.332;12.334;2023-03-01T22:16:13;0.20;48.50
10386;DHT22;34307;51.332;12.334;2023-03-01T22:18:42;0.20;48.90
10386;DHT22;34307;51.332;12.334;2023-03-01T22:21:10;0.10;49.20
10386;DHT22;34307;51.332;12.334;2023-03-01T22:23:38;-0.10;48.80
10386;DHT22;34307;51.332;12.334;2023-03-01T22:26:06;-0.10;63.00
10386;DHT22;34307;51.332;12.334;2023-03-01T22:28:34;0.00;99.90
10386;DHT22;34307;51.332;12.334;2023-03-01T22:31:03;-0.10;99.90
10386;DHT22;34307;51.332;12.334;2023-03-01T22:33:31;-0.20;99.90
10386;DHT22;34307;51.332;12.334;2023-03-01T22:36:00;-0.30;1.00
10386;DHT22;34307;51.332;12.334;2023-03-01T22:38:28;-0.30;1.00
10386;DHT22;34307;51.332;12.334;2023-03-01T22:40:59;-0.40;1.00
10386;DHT22;34307;51.332;12.334;2023-03-01T22:43:29;-0.40;1.00
10386;DHT22;34307;51.332;12.334;2023-03-01T22:45:57;-0.40;1.00
10386;DHT22;34307;51.332;12.334;2023-03-01T22:48:25;-0.40;1.00
10386;DHT22;34307;51.332;12.334;2023-03-01T22:50:53;-0.40;1.00
10386;DHT22;34307;51.332;12.334;2023-03-01T22:53:22;-0.40;1.00
10386;DHT22;34307;51.332;12.334;2023-03-01T22:55:50;-0.40;1.00
10386;DHT22;34307;51.332;12.334;2023-03-01T22:58:18;-0.40;1.00
10386;DHT22;34307;51.332;12.334;2023-03-01T23:00:45;-0.50;1.00
10386;DHT22;34307;51.332;12.334;2023-03-01T23:03:13;-0.40;1.00
10386;DHT22;34307;51.332;12.334;2023-03-01T23:05:42;-0.50;1.00
10386;DHT22;34307;51.332;12.334;2023-03-01T23:08:10;-0.50;1.00
10386;DHT22;34307;51.332;12.334;2023-03-01T23:10:40;-0.50;1.00
10386;DHT22;34307;51.332;12.334;2023-03-01T23:13:08;-0.50;1.00
10386;DHT22;34307;51.332;12.334;2023-03-01T23:15:36;-0.60;1.00
10386;DHT22;34307;51.332;12.334;2023-03-01T23:18:05;-0.70;1.00
10386;DHT22;34307;51.332;12.334;2023-03-01T23:20:34;-0.80;81.10
10386;DHT22;34307;51.332;12.334;2023-03-01T23:23:02;-0.80;99.90
10386;DHT22;34307;51.332;12.334;2023-03-01T23:25:30;-0.80;1.00
10386;DHT22;34307;51.332;12.334;2023-03-01T23:27:59;-0.90;1.00
10386;DHT22;34307;51.332;12.334;2023-03-01T23:30:27;-1.00;1.00
10386;DHT22;34307;51.332;12.334;2023-03-01T23:32:54;-1.00;95.10
10386;DHT22;34307;51.332;12.334;2023-03-01T23:35:26;-1.00;99.90
10386;DHT22;34307;51.332;12.334;2023-03-01T23:37:53;-1.10;1.00
10386;DHT22;34307;51.332;12.334;2023-03-01T23:40:21;-1.10;1.00
